createdAt,value
2017-05-22T00:00:01.540Z,12.43
2017-05-22T00:00:41.947Z,12.51
2017-05-22T00:01:22.351Z,12.4
2017-05-22T00:02:02.778Z,12.32
2017-05-22T00:02:43.226Z,12.37
2017-05-22T00:03:23.638Z,12.35
2017-05-22T00:04:04.040Z,12.4
2017-05-22T00:04:44.430Z,12.33
2017-05-22T00:05:24.861Z,12.35
2017-05-22T00:06:05.272Z,12.33
2017-05-22T00:06:45.689Z,12.37
2017-05-22T00:07:26.077Z,12.37
2017-05-22T00:08:06.507Z,12.37
2017-05-22T00:08:46.903Z,12.36
2017-05-22T00:09:27.324Z,12.4
2017-05-22T00:10:07.745Z,12.35
2017-05-22T00:10:48.138Z,12.37
2017-05-22T00:11:28.541Z,12.36
2017-05-22T00:12:08.977Z,12.37
2017-05-22T00:12:49.377Z,12.45
2017-05-22T00:13:29.826Z,12.35
2017-05-22T00:14:10.236Z,12.44
2017-05-22T00:14:50.651Z,12.32
2017-05-22T00:15:31.078Z,12.47
2017-05-22T00:16:11.489Z,12.39
2017-05-22T00:16:51.892Z,12.45
2017-05-22T00:17:32.317Z,12.37
2017-05-22T00:18:12.739Z,12.51
2017-05-22T00:18:53.132Z,12.36
2017-05-22T00:19:33.554Z,12.3
2017-05-22T00:20:13.948Z,12.32
2017-05-22T00:20:54.343Z,12.36
2017-05-22T00:21:34.743Z,12.28
2017-05-22T00:22:15.149Z,12.28
2017-05-22T00:22:55.585Z,12.29
2017-05-22T00:23:35.984Z,12.23
2017-05-22T00:24:16.392Z,12.3
2017-05-22T00:24:56.791Z,12.21
2017-05-22T00:25:37.220Z,12.2
2017-05-22T00:26:17.619Z,12.2
2017-05-22T00:26:58.052Z,12.18
2017-05-22T00:27:38.444Z,12.2
2017-05-22T00:28:18.877Z,12.23
2017-05-22T00:28:59.275Z,12.23
2017-05-22T00:29:39.709Z,12.15
2017-05-22T00:30:20.149Z,12.12
2017-05-22T00:31:00.553Z,12.26
2017-05-22T00:31:40.951Z,12.2
2017-05-22T00:32:21.376Z,12.2
2017-05-22T00:33:01.798Z,12.18
2017-05-22T00:33:42.237Z,12.2
2017-05-22T00:34:22.634Z,12.18
2017-05-22T00:35:03.081Z,12.2
2017-05-22T00:35:43.466Z,12.18
2017-05-22T00:36:23.892Z,12.12
2017-05-22T00:37:04.274Z,12.2
2017-05-22T00:37:44.717Z,12.21
2017-05-22T00:38:25.122Z,12.25
2017-05-22T00:39:05.547Z,12.23
2017-05-22T00:39:45.949Z,12.12
2017-05-22T00:40:26.370Z,12.21
2017-05-22T00:41:06.825Z,12.32
2017-05-22T00:41:47.199Z,12.35
2017-05-22T00:42:27.693Z,12.36
2017-05-22T00:43:08.046Z,12.51
2017-05-22T00:43:48.457Z,12.48
2017-05-22T00:44:28.859Z,12.62
2017-05-22T00:45:09.226Z,12.57
2017-05-22T00:45:49.675Z,12.66
2017-05-22T00:46:30.117Z,12.72
2017-05-22T00:47:10.499Z,12.76
2017-05-22T00:47:50.896Z,12.91
2017-05-22T00:48:31.328Z,12.91
2017-05-22T00:49:11.730Z,13.02
2017-05-22T00:49:52.151Z,13.08
2017-05-22T00:50:32.531Z,13.09
2017-05-22T00:51:12.941Z,13.12
2017-05-22T00:52:50.498Z,13.31
2017-05-22T00:53:31.900Z,13.43
2017-05-22T00:54:12.325Z,13.55
2017-05-22T00:54:52.716Z,13.55
2017-05-22T00:55:33.142Z,13.64
2017-05-22T00:56:13.560Z,13.71
2017-05-22T00:56:54.007Z,13.73
2017-05-22T00:57:34.417Z,13.7
2017-05-22T00:58:14.841Z,13.65
2017-05-22T00:58:55.218Z,13.83
2017-05-22T00:59:35.628Z,13.76
2017-05-22T01:00:16.061Z,13.83
2017-05-22T01:00:56.458Z,13.85
2017-05-22T01:01:36.873Z,13.91
2017-05-22T01:02:17.258Z,13.95
2017-05-22T01:02:57.691Z,14.05
2017-05-22T01:03:38.091Z,14.01
2017-05-22T01:04:18.546Z,14.13
2017-05-22T01:04:58.935Z,14.05
2017-05-22T01:05:39.426Z,14.12
2017-05-22T01:06:19.821Z,14.12
2017-05-22T01:07:00.235Z,14.12
2017-05-22T01:07:40.672Z,14.16
2017-05-22T01:08:21.093Z,14.19
2017-05-22T01:09:01.514Z,14.2
2017-05-22T01:09:41.885Z,14.22
2017-05-22T01:10:22.295Z,14.15
2017-05-22T01:11:02.742Z,14.18
2017-05-22T01:11:43.124Z,14.19
2017-05-22T01:12:23.531Z,14.25
2017-05-22T01:13:03.961Z,14.26
2017-05-22T01:13:44.402Z,14.25
2017-05-22T01:14:24.810Z,14.3
2017-05-22T01:16:22.716Z,14.33
2017-05-22T01:17:03.148Z,14.31
2017-05-22T01:17:43.555Z,14.33
2017-05-22T01:18:23.972Z,14.31
2017-05-22T01:19:04.371Z,14.36
2017-05-22T01:19:44.809Z,14.37
2017-05-22T01:20:25.220Z,14.3
2017-05-22T01:21:05.630Z,14.28
2017-05-22T01:21:46.070Z,14.26
2017-05-22T01:22:26.484Z,14.38
2017-05-22T01:23:06.889Z,14.33
2017-05-22T01:23:47.339Z,14.3
2017-05-22T01:24:27.783Z,14.28
2017-05-22T01:25:08.233Z,14.37
2017-05-22T01:25:48.586Z,14.33
2017-05-22T01:26:29.028Z,14.36
2017-05-22T01:27:09.426Z,14.3
2017-05-22T01:27:49.858Z,14.2
2017-05-22T01:28:30.274Z,14.31
2017-05-22T01:29:10.681Z,14.34
2017-05-22T01:29:51.113Z,14.26
2017-05-22T01:30:31.513Z,14.25
2017-05-22T01:31:11.936Z,14.25
2017-05-22T01:32:59.595Z,14.3
2017-05-22T01:33:39.995Z,14.26
2017-05-22T01:34:20.434Z,14.25
2017-05-22T01:35:00.882Z,14.26
2017-05-22T01:35:41.307Z,14.28
2017-05-22T01:36:21.683Z,14.26
2017-05-22T01:37:02.093Z,14.25
2017-05-22T01:37:42.536Z,14.26
2017-05-22T01:38:22.981Z,14.3
2017-05-22T01:39:03.337Z,14.22
2017-05-22T01:39:43.780Z,14.19
2017-05-22T01:40:24.150Z,14.08
2017-05-22T01:41:04.627Z,14.15
2017-05-22T01:41:45.029Z,14.2
2017-05-22T01:42:25.442Z,14.22
2017-05-22T01:43:05.837Z,14.18
2017-05-22T01:44:58.398Z,14.15
2017-05-22T01:45:38.826Z,14.08
2017-05-22T01:46:19.255Z,14.13
2017-05-22T01:46:59.716Z,14.13
2017-05-22T01:49:12.437Z,14.07
2017-05-22T01:49:52.852Z,14.12
2017-05-22T01:51:50.673Z,14.16
2017-05-22T01:52:31.087Z,14.15
2017-05-22T01:53:11.516Z,14.12
2017-05-22T01:53:51.947Z,14.2
2017-05-22T01:54:32.342Z,14.16
2017-05-22T01:55:12.785Z,14.12
2017-05-22T01:55:53.194Z,14.15
2017-05-22T01:57:51.055Z,14.19
2017-05-22T01:58:31.442Z,14.08
2017-05-22T01:59:11.870Z,14.12
2017-05-22T01:59:52.302Z,14.05
2017-05-22T02:00:32.727Z,14.16
2017-05-22T02:01:13.186Z,14.08
2017-05-22T02:01:53.607Z,14.04
2017-05-22T02:02:34.027Z,14.13
2017-05-22T02:03:14.441Z,14.04
2017-05-22T02:03:54.902Z,14.01
2017-05-22T02:04:35.334Z,14.04
2017-05-22T02:05:15.720Z,14.03
2017-05-22T02:05:56.164Z,14.03
2017-05-22T02:06:36.601Z,13.94
2017-05-22T02:07:17.018Z,14.01
2017-05-22T02:07:57.422Z,13.98
2017-05-22T02:08:37.842Z,13.97
2017-05-22T02:09:18.265Z,13.98
2017-05-22T02:09:58.683Z,13.97
2017-05-22T02:10:39.101Z,13.95
2017-05-22T02:11:19.516Z,13.93
2017-05-22T02:11:59.962Z,13.91
2017-05-22T02:12:40.387Z,13.83
2017-05-22T02:13:20.834Z,13.83
2017-05-22T02:14:01.284Z,13.86
2017-05-22T02:14:41.734Z,13.83
2017-05-22T02:15:22.153Z,13.8
2017-05-22T02:16:02.597Z,13.91
2017-05-22T02:16:43.054Z,13.86
2017-05-22T02:17:23.458Z,13.89
2017-05-22T02:18:03.851Z,13.85
2017-05-22T02:18:44.287Z,13.91
2017-05-22T02:19:24.729Z,13.94
2017-05-22T02:20:05.133Z,13.95
2017-05-22T02:21:42.878Z,13.86
2017-05-22T02:22:23.340Z,13.91
2017-05-22T02:23:03.775Z,13.86
2017-05-22T02:23:44.180Z,13.86
2017-05-22T02:24:24.593Z,13.89
2017-05-22T02:25:05.023Z,13.86
2017-05-22T02:25:45.416Z,13.95
2017-05-22T02:26:25.818Z,13.95
2017-05-22T02:28:13.323Z,13.91
2017-05-22T02:28:53.726Z,13.94
2017-05-22T02:29:34.144Z,13.89
2017-05-22T02:30:14.585Z,13.91
2017-05-22T02:30:54.995Z,13.89
2017-05-22T02:31:35.423Z,13.87
2017-05-22T02:32:15.879Z,13.85
2017-05-22T02:32:56.269Z,13.89
2017-05-22T02:33:36.680Z,13.82
2017-05-22T02:34:17.060Z,13.83
2017-05-22T02:34:57.450Z,13.82
2017-05-22T02:35:37.876Z,13.79
2017-05-22T02:36:18.280Z,13.85
2017-05-22T02:38:12.052Z,13.8
2017-05-22T02:38:52.470Z,13.85
2017-05-22T02:39:32.871Z,13.73
2017-05-22T02:40:13.302Z,13.7
2017-05-22T02:40:53.774Z,13.79
2017-05-22T02:41:34.160Z,13.73
2017-05-22T02:42:14.558Z,13.61
2017-05-22T02:42:54.977Z,13.57
2017-05-22T02:43:35.424Z,13.36
2017-05-22T02:44:15.805Z,13.3
2017-05-22T02:44:56.198Z,13.13
2017-05-22T02:45:36.635Z,12.99
2017-05-22T02:46:17.093Z,13.05
2017-05-22T02:46:57.486Z,12.98
2017-05-22T02:47:37.896Z,12.94
2017-05-22T02:48:18.346Z,12.83
2017-05-22T02:50:11.221Z,12.72
2017-05-22T02:50:51.632Z,12.72
2017-05-22T02:51:32.067Z,12.7
2017-05-22T02:52:12.475Z,12.63
2017-05-22T02:52:52.870Z,12.55
2017-05-22T02:53:33.320Z,12.5
2017-05-22T02:54:13.711Z,12.39
2017-05-22T02:55:51.289Z,12.4
2017-05-22T02:56:31.697Z,12.36
2017-05-22T02:57:12.115Z,12.37
2017-05-22T02:57:52.542Z,12.4
2017-05-22T02:58:32.950Z,12.21
2017-05-22T02:59:13.377Z,12.23
2017-05-22T02:59:53.838Z,12.3
2017-05-22T03:00:34.234Z,12.29
2017-05-22T03:01:14.654Z,12.26
2017-05-22T03:03:08.119Z,12.23
2017-05-22T03:03:48.556Z,12.21
2017-05-22T03:04:29.000Z,12.2
2017-05-22T03:05:09.436Z,12.21
2017-05-22T03:05:49.880Z,12.14
2017-05-22T03:06:30.304Z,12.12
2017-05-22T03:07:10.754Z,12.07
2017-05-22T03:07:51.173Z,12.1
2017-05-22T03:08:31.587Z,12.07
2017-05-22T03:09:12.005Z,12.02
2017-05-22T03:09:52.414Z,12.07
2017-05-22T03:10:32.874Z,11.97
2017-05-22T03:11:13.267Z,11.93
2017-05-22T03:11:53.670Z,12.12
2017-05-22T03:12:34.115Z,12
2017-05-22T03:13:14.531Z,12.05
2017-05-22T03:13:54.937Z,12.08
2017-05-22T03:14:35.379Z,11.99
2017-05-22T03:15:15.833Z,12.07
2017-05-22T03:15:56.271Z,12.03
2017-05-22T03:17:44.877Z,11.96
2017-05-22T03:18:25.301Z,12.07
2017-05-22T03:19:05.718Z,12.11
2017-05-22T03:19:46.163Z,12.02
2017-05-22T03:20:26.594Z,12.05
2017-05-22T03:21:07.024Z,12.07
2017-05-22T03:21:47.453Z,12.05
2017-05-22T03:22:27.874Z,12
2017-05-22T03:24:25.777Z,12.03
2017-05-22T03:25:06.214Z,12.12
2017-05-22T03:25:46.641Z,12.02
2017-05-22T03:26:27.081Z,12.02
2017-05-22T03:27:07.511Z,12.1
2017-05-22T03:27:47.957Z,12.1
2017-05-22T03:28:28.389Z,12.11
2017-05-22T03:29:08.807Z,12.12
2017-05-22T03:29:49.224Z,12.1
2017-05-22T03:30:29.646Z,12.17
2017-05-22T03:31:10.037Z,12.21
2017-05-22T03:31:50.521Z,12.2
2017-05-22T03:32:30.965Z,12.2
2017-05-22T03:33:11.363Z,12.2
2017-05-22T03:33:51.763Z,12.18
2017-05-22T03:34:32.190Z,12.21
2017-05-22T03:35:12.590Z,12.2
2017-05-22T03:35:52.996Z,12.18
2017-05-22T03:36:33.428Z,12.21
2017-05-22T03:37:13.826Z,12.18
2017-05-22T03:37:54.243Z,12.25
2017-05-22T03:38:34.644Z,12.25
2017-05-22T03:39:15.098Z,12.1
2017-05-22T03:39:55.493Z,12.2
2017-05-22T03:40:35.897Z,12.18
2017-05-22T03:41:16.291Z,12.17
2017-05-22T03:41:56.720Z,12.26
2017-05-22T03:42:37.121Z,12.21
2017-05-22T03:43:17.559Z,12.25
2017-05-22T03:43:57.965Z,12.11
2017-05-22T03:44:38.395Z,12.17
2017-05-22T03:45:18.807Z,12.2
2017-05-22T03:45:59.222Z,12.1
2017-05-22T03:46:39.621Z,12.12
2017-05-22T03:47:20.057Z,12.23
2017-05-22T03:48:00.488Z,12.17
2017-05-22T03:48:40.906Z,12.28
2017-05-22T03:49:21.363Z,12.18
2017-05-22T03:50:01.719Z,12.2
2017-05-22T03:50:42.140Z,12.21
2017-05-22T03:51:22.577Z,12.14
2017-05-22T03:52:02.994Z,12.14
2017-05-22T03:52:43.426Z,12.18
2017-05-22T03:53:23.903Z,12.12
2017-05-22T03:54:04.351Z,12.07
2017-05-22T03:54:44.734Z,12.17
2017-05-22T03:55:25.190Z,12.15
2017-05-22T03:56:05.628Z,12.14
2017-05-22T03:56:46.015Z,12.15
2017-05-22T03:57:26.404Z,12.07
2017-05-22T03:58:06.846Z,12.14
2017-05-22T03:58:47.255Z,12.07
2017-05-22T03:59:27.698Z,12.1
2017-05-22T04:00:08.096Z,12.18
2017-05-22T04:00:48.516Z,12.15
2017-05-22T04:01:28.944Z,12.21
2017-05-22T04:02:09.334Z,12.15
2017-05-22T04:02:49.749Z,12.2
2017-05-22T04:03:30.227Z,12.18
2017-05-22T04:04:10.643Z,12.23
2017-05-22T04:04:51.028Z,12.21
2017-05-22T04:05:31.447Z,12.29
2017-05-22T04:06:11.928Z,12.25
2017-05-22T04:06:52.278Z,12.29
2017-05-22T04:07:32.778Z,12.36
2017-05-22T04:08:13.128Z,12.36
2017-05-22T04:08:53.515Z,12.33
2017-05-22T04:09:33.916Z,12.5
2017-05-22T04:10:14.346Z,12.44
2017-05-22T04:10:54.754Z,12.47
2017-05-22T04:11:35.154Z,12.55
2017-05-22T04:12:15.576Z,12.55
2017-05-22T04:12:55.995Z,12.62
2017-05-22T04:13:36.406Z,12.62
2017-05-22T04:14:16.848Z,12.65
2017-05-22T04:14:57.238Z,12.61
2017-05-22T04:15:37.644Z,12.58
2017-05-22T04:16:18.046Z,12.66
2017-05-22T04:16:58.471Z,12.7
2017-05-22T04:17:38.937Z,12.73
2017-05-22T04:18:19.373Z,12.8
2017-05-22T04:18:59.714Z,12.8
2017-05-22T04:19:40.116Z,12.83
2017-05-22T04:20:20.519Z,12.81
2017-05-22T04:21:00.941Z,12.83
2017-05-22T04:21:41.348Z,12.84
2017-05-22T04:22:21.798Z,12.81
2017-05-22T04:23:02.161Z,12.9
2017-05-22T04:23:42.552Z,12.91
2017-05-22T04:24:22.985Z,12.91
2017-05-22T04:25:03.365Z,12.91
2017-05-22T04:25:43.814Z,12.88
2017-05-22T04:26:24.208Z,12.93
2017-05-22T04:27:04.618Z,12.94
2017-05-22T04:27:45.067Z,12.93
2017-05-22T04:28:25.584Z,12.94
2017-05-22T04:29:05.920Z,13.03
2017-05-22T04:29:46.350Z,13.06
2017-05-22T04:30:26.771Z,13.12
2017-05-22T04:31:07.192Z,13.13
2017-05-22T04:31:47.635Z,13.27
2017-05-22T04:32:28.044Z,13.37
2017-05-22T04:33:08.503Z,13.49
2017-05-22T04:33:48.910Z,13.5
2017-05-22T04:34:29.314Z,13.61
2017-05-22T04:35:09.714Z,13.65
2017-05-22T04:35:50.122Z,13.75
2017-05-22T04:36:30.559Z,13.82
2017-05-22T04:38:08.230Z,14.12
2017-05-22T04:38:48.660Z,14.15
2017-05-22T04:39:29.097Z,14.25
2017-05-22T04:40:09.511Z,14.25
2017-05-22T04:40:49.951Z,14.31
2017-05-22T04:41:30.370Z,14.41
2017-05-22T04:43:43.060Z,14.78
2017-05-22T04:44:23.472Z,14.77
2017-05-22T04:45:03.902Z,14.86
2017-05-22T04:45:44.309Z,14.92
2017-05-22T04:46:24.725Z,15
2017-05-22T04:47:05.142Z,15.05
2017-05-22T04:47:45.543Z,15.08
2017-05-22T04:48:25.965Z,15.23
2017-05-22T04:49:06.436Z,15.32
2017-05-22T04:49:46.834Z,15.37
2017-05-22T04:50:27.267Z,15.33
2017-05-22T04:51:07.711Z,15.47
2017-05-22T04:51:48.148Z,15.44
2017-05-22T04:52:28.576Z,15.45
2017-05-22T04:53:08.986Z,15.54
2017-05-22T04:54:46.646Z,15.62
2017-05-22T04:55:27.043Z,15.66
2017-05-22T04:56:07.452Z,15.6
2017-05-22T04:56:47.845Z,15.72
2017-05-22T04:57:28.301Z,15.69
2017-05-22T04:58:08.699Z,15.7
2017-05-22T04:58:49.089Z,15.73
2017-05-22T04:59:29.513Z,15.75
2017-05-22T05:00:09.938Z,15.75
2017-05-22T05:00:50.391Z,15.84
2017-05-22T05:01:30.894Z,15.8
2017-05-22T05:02:11.337Z,15.9
2017-05-22T05:02:51.762Z,15.92
2017-05-22T05:03:32.145Z,15.9
2017-05-22T05:04:12.542Z,15.98
2017-05-22T05:04:52.932Z,16.02
2017-05-22T05:06:40.549Z,16.17
2017-05-22T05:07:22.772Z,16.1
2017-05-22T05:08:03.206Z,16.21
2017-05-22T05:08:43.652Z,16.24
2017-05-22T05:09:24.078Z,16.22
2017-05-22T05:10:04.477Z,16.22
2017-05-22T05:10:44.979Z,16.21
2017-05-22T05:11:25.403Z,16.31
2017-05-22T05:12:05.844Z,16.39
2017-05-22T05:12:46.234Z,16.28
2017-05-22T05:13:26.654Z,16.51
2017-05-22T05:14:07.204Z,16.55
2017-05-22T05:14:47.604Z,16.49
2017-05-22T05:15:28.031Z,16.55
2017-05-22T05:16:08.492Z,16.69
2017-05-22T05:16:48.936Z,16.72
2017-05-22T05:17:29.347Z,16.73
2017-05-22T05:18:09.838Z,16.84
2017-05-22T05:18:50.256Z,16.92
2017-05-22T05:19:30.672Z,16.99
2017-05-22T05:20:11.062Z,16.98
2017-05-22T05:20:51.465Z,17.14
2017-05-22T05:21:31.890Z,17.13
2017-05-22T05:22:12.324Z,17.09
2017-05-22T05:22:52.799Z,17.14
2017-05-22T05:23:33.186Z,17.16
2017-05-22T05:24:13.669Z,17.1
2017-05-22T05:24:54.063Z,17.22
2017-05-22T05:25:34.668Z,17.14
2017-05-22T05:26:15.051Z,17.19
2017-05-22T05:26:55.538Z,17.24
2017-05-22T05:27:35.941Z,17.24
2017-05-22T05:28:16.374Z,17.23
2017-05-22T05:28:56.836Z,17.3
2017-05-22T05:29:37.257Z,17.31
2017-05-22T05:30:17.673Z,17.3
2017-05-22T05:30:58.143Z,17.3
2017-05-22T05:31:38.531Z,17.41
2017-05-22T05:32:18.952Z,17.39
2017-05-22T05:32:59.375Z,17.3
2017-05-22T05:33:39.795Z,17.23
2017-05-22T05:34:20.170Z,17.14
2017-05-22T05:35:00.597Z,17.07
2017-05-22T05:35:41.009Z,17.14
2017-05-22T05:36:21.410Z,17.01
2017-05-22T05:37:01.806Z,16.92
2017-05-22T05:37:42.242Z,16.94
2017-05-22T05:38:22.652Z,16.84
2017-05-22T05:39:03.090Z,16.73
2017-05-22T05:39:43.481Z,16.68
2017-05-22T05:40:23.917Z,16.62
2017-05-22T05:41:04.304Z,16.58
2017-05-22T05:41:44.695Z,16.57
2017-05-22T05:42:25.099Z,16.61
2017-05-22T05:43:05.540Z,16.5
2017-05-22T05:43:45.932Z,16.44
2017-05-22T05:44:26.362Z,16.41
2017-05-22T05:45:06.897Z,16.4
2017-05-22T05:45:47.476Z,16.43
2017-05-22T05:46:27.948Z,16.49
2017-05-22T05:47:08.427Z,16.31
2017-05-22T05:47:48.854Z,16.31
2017-05-22T05:48:29.279Z,16.37
2017-05-22T05:49:09.723Z,16.29
2017-05-22T05:49:50.386Z,16.21
2017-05-22T05:50:30.691Z,16.21
2017-05-22T05:51:11.112Z,16.22
2017-05-22T05:51:51.510Z,16.17
2017-05-22T05:52:31.924Z,16.13
2017-05-22T05:53:12.363Z,16.1
2017-05-22T05:53:52.774Z,16.02
2017-05-22T05:54:33.214Z,15.88
2017-05-22T05:55:13.698Z,15.92
2017-05-22T05:57:12.333Z,15.9
2017-05-22T05:57:52.755Z,15.9
2017-05-22T05:58:33.199Z,15.88
2017-05-22T05:59:13.651Z,15.9
2017-05-22T05:59:54.078Z,15.85
2017-05-22T06:00:34.481Z,15.84
2017-05-22T06:01:14.905Z,15.83
2017-05-22T06:01:55.350Z,15.87
2017-05-22T06:02:35.775Z,15.88
2017-05-22T06:03:16.214Z,15.9
2017-05-22T06:03:56.613Z,15.83
2017-05-22T06:04:37.025Z,15.87
2017-05-22T06:05:17.448Z,15.83
2017-05-22T06:05:57.877Z,15.9
2017-05-22T06:06:38.296Z,15.84
2017-05-22T06:07:18.692Z,15.83
2017-05-22T06:07:59.094Z,15.87
2017-05-22T06:08:39.593Z,15.83
2017-05-22T06:09:20.023Z,15.9
2017-05-22T06:10:00.425Z,15.87
2017-05-22T06:10:40.886Z,15.96
2017-05-22T06:11:22.746Z,15.9
2017-05-22T06:12:03.665Z,16
2017-05-22T06:13:56.970Z,15.9
2017-05-22T06:14:37.415Z,15.98
2017-05-22T06:15:17.896Z,15.91
2017-05-22T06:15:58.387Z,15.9
2017-05-22T06:17:56.178Z,16.02
2017-05-22T06:18:36.591Z,16.05
2017-05-22T06:19:17.091Z,16.06
2017-05-22T06:19:57.560Z,16.08
2017-05-22T06:20:37.972Z,16.12
2017-05-22T06:21:18.375Z,16.17
2017-05-22T06:23:06.126Z,16.34
2017-05-22T06:23:46.564Z,16.25
2017-05-22T06:24:27.000Z,16.36
2017-05-22T06:26:39.940Z,16.47
2017-05-22T06:27:20.406Z,16.47
2017-05-22T06:28:00.826Z,16.46
2017-05-22T06:28:41.277Z,16.49
2017-05-22T06:30:38.962Z,16.64
2017-05-22T06:31:19.461Z,16.73
2017-05-22T06:31:59.849Z,16.76
2017-05-22T06:32:40.282Z,16.82
2017-05-22T06:33:20.734Z,16.84
2017-05-22T06:35:33.850Z,17.05
2017-05-22T06:36:14.286Z,17.12
2017-05-22T06:36:54.726Z,17.07
2017-05-22T06:37:35.157Z,17.13
2017-05-22T06:38:15.630Z,17.14
2017-05-22T06:38:56.072Z,17.12
2017-05-22T06:40:53.983Z,17.1
2017-05-22T06:41:34.393Z,17.17
2017-05-22T06:42:14.819Z,17.19
2017-05-22T06:42:55.255Z,17.19
2017-05-22T06:43:35.683Z,17.22
2017-05-22T06:44:16.093Z,17.2
2017-05-22T06:44:56.531Z,17.38
2017-05-22T06:45:36.941Z,17.31
2017-05-22T06:46:17.376Z,17.38
2017-05-22T06:46:57.823Z,17.41
2017-05-22T06:47:38.230Z,17.42
2017-05-22T06:48:18.668Z,17.44
2017-05-22T06:48:59.089Z,17.46
2017-05-22T06:49:39.515Z,17.41
2017-05-22T06:50:19.903Z,17.47
2017-05-22T06:51:00.329Z,17.44
2017-05-22T06:51:40.751Z,17.44
2017-05-22T06:52:21.165Z,17.49
2017-05-22T06:53:01.572Z,17.47
2017-05-22T06:53:42.003Z,17.49
2017-05-22T06:54:22.414Z,17.49
2017-05-22T06:55:02.813Z,17.52
2017-05-22T06:55:43.250Z,17.54
2017-05-22T06:57:36.055Z,17.52
2017-05-22T06:58:16.521Z,17.6
2017-05-22T06:58:56.943Z,17.65
2017-05-22T06:59:37.381Z,17.63
2017-05-22T07:00:17.781Z,17.63
2017-05-22T07:00:58.201Z,17.66
2017-05-22T07:01:38.638Z,17.6
2017-05-22T07:02:19.116Z,17.68
2017-05-22T07:03:56.679Z,17.73
2017-05-22T07:04:37.090Z,17.69
2017-05-22T07:05:17.536Z,17.75
2017-05-22T07:05:57.969Z,17.75
2017-05-22T07:06:38.397Z,17.82
2017-05-22T07:07:18.817Z,17.82
2017-05-22T07:07:59.241Z,17.82
2017-05-22T07:08:39.671Z,17.9
2017-05-22T07:09:20.085Z,17.88
2017-05-22T07:10:57.528Z,17.86
2017-05-22T07:11:37.964Z,17.86
2017-05-22T07:12:18.392Z,17.84
2017-05-22T07:12:58.840Z,17.94
2017-05-22T07:13:39.279Z,17.95
2017-05-22T07:14:19.714Z,17.95
2017-05-22T07:15:00.174Z,17.88
2017-05-22T07:15:40.578Z,17.97
2017-05-22T07:16:21.016Z,17.88
2017-05-22T07:17:58.712Z,17.93
2017-05-22T07:18:39.149Z,17.93
2017-05-22T07:19:19.600Z,17.88
2017-05-22T07:20:00.075Z,17.86
2017-05-22T07:20:40.470Z,17.87
2017-05-22T07:21:20.865Z,18.03
2017-05-22T07:22:01.313Z,17.93
2017-05-22T07:22:41.718Z,17.93
2017-05-22T07:23:22.136Z,17.93
2017-05-22T07:24:02.529Z,17.91
2017-05-22T07:24:44.472Z,17.98
2017-05-22T07:25:24.871Z,17.95
2017-05-22T07:26:05.304Z,17.97
2017-05-22T07:26:45.715Z,17.97
2017-05-22T07:27:26.112Z,17.97
2017-05-22T07:28:06.545Z,18.02
2017-05-22T07:28:46.978Z,17.95
2017-05-22T07:29:27.400Z,18.09
2017-05-22T07:30:07.839Z,18.03
2017-05-22T07:30:48.292Z,18.08
2017-05-22T07:31:28.697Z,18.11
2017-05-22T07:32:09.143Z,18.08
2017-05-22T07:34:07.019Z,18.28
2017-05-22T07:34:47.462Z,18.3
2017-05-22T07:35:27.903Z,18.3
2017-05-22T07:36:08.355Z,18.33
2017-05-22T07:36:48.752Z,18.33
2017-05-22T07:37:29.176Z,18.37
2017-05-22T07:38:09.618Z,18.42
2017-05-22T07:38:50.023Z,18.43
2017-05-22T07:39:30.426Z,18.45
2017-05-22T07:40:10.839Z,18.46
2017-05-22T07:40:51.272Z,18.53
2017-05-22T07:41:31.687Z,18.63
2017-05-22T07:42:12.145Z,18.68
2017-05-22T07:42:52.567Z,18.67
2017-05-22T07:44:30.018Z,18.76
2017-05-22T07:45:10.465Z,18.73
2017-05-22T07:45:50.879Z,18.85
2017-05-22T07:46:31.368Z,18.89
2017-05-22T07:47:11.849Z,18.94
2017-05-22T07:47:52.292Z,18.98
2017-05-22T07:48:32.705Z,18.96
2017-05-22T07:49:13.098Z,19.05
2017-05-22T07:49:53.511Z,18.97
2017-05-22T07:50:33.951Z,19.07
2017-05-22T07:51:14.375Z,19.08
2017-05-22T07:51:54.794Z,19.16
2017-05-22T07:52:35.227Z,19.16
2017-05-22T07:53:15.638Z,19.22
2017-05-22T07:53:56.080Z,19.23
2017-05-22T07:54:36.518Z,19.24
2017-05-22T07:55:16.969Z,19.34
2017-05-22T07:55:57.387Z,19.24
2017-05-22T07:57:50.285Z,19.45
2017-05-22T07:58:30.685Z,19.39
2017-05-22T07:59:11.115Z,19.53
2017-05-22T07:59:51.527Z,19.52
2017-05-22T08:00:31.935Z,19.45
2017-05-22T08:01:12.387Z,19.57
2017-05-22T08:01:52.825Z,19.45
2017-05-22T08:02:33.219Z,19.56
2017-05-22T08:03:13.667Z,19.53
2017-05-22T08:03:54.056Z,19.57
2017-05-22T08:04:34.455Z,19.67
2017-05-22T08:05:14.978Z,19.7
2017-05-22T08:05:55.412Z,19.77
2017-05-22T08:06:35.850Z,19.75
2017-05-22T08:08:28.616Z,19.74
2017-05-22T08:09:09.036Z,19.63
2017-05-22T08:09:49.475Z,19.71
2017-05-22T08:10:29.886Z,19.75
2017-05-22T08:12:07.329Z,19.82
2017-05-22T08:12:47.769Z,19.89
2017-05-22T08:13:28.224Z,19.85
2017-05-22T08:14:08.649Z,19.84
2017-05-22T08:14:49.111Z,19.82
2017-05-22T08:15:29.509Z,19.85
2017-05-22T08:16:09.921Z,19.82
2017-05-22T08:16:50.358Z,19.87
2017-05-22T08:17:30.762Z,19.87
2017-05-22T08:18:11.205Z,19.81
2017-05-22T08:18:51.651Z,19.78
2017-05-22T08:19:32.091Z,19.63
2017-05-22T08:20:12.532Z,19.62
2017-05-22T08:20:52.927Z,19.71
2017-05-22T08:21:33.329Z,19.75
2017-05-22T08:22:13.689Z,19.74
2017-05-22T08:22:54.125Z,19.81
2017-05-22T08:23:34.572Z,19.85
2017-05-22T08:24:15.039Z,19.9
2017-05-22T08:24:55.444Z,20
2017-05-22T08:25:35.788Z,19.96
2017-05-22T08:26:16.192Z,20
2017-05-22T08:26:56.710Z,20.08
2017-05-22T08:27:37.078Z,19.97
2017-05-22T08:29:14.676Z,19.96
2017-05-22T08:29:55.071Z,19.92
2017-05-22T08:30:35.497Z,19.94
2017-05-22T08:31:15.887Z,19.82
2017-05-22T08:31:56.354Z,19.87
2017-05-22T08:32:36.782Z,19.85
2017-05-22T08:33:17.207Z,19.85
2017-05-22T08:33:57.622Z,19.84
2017-05-22T08:34:38.036Z,19.89
2017-05-22T08:35:18.481Z,19.87
2017-05-22T08:35:58.967Z,19.77
2017-05-22T08:36:39.325Z,19.77
2017-05-22T08:37:19.766Z,19.85
2017-05-22T08:38:00.281Z,19.89
2017-05-22T08:38:40.693Z,19.94
2017-05-22T08:39:21.126Z,19.94
2017-05-22T08:40:01.616Z,20
2017-05-22T08:40:42.048Z,20.07
2017-05-22T08:41:22.463Z,20.1
2017-05-22T08:42:02.888Z,20.21
2017-05-22T08:42:43.364Z,20.24
2017-05-22T08:43:23.850Z,20.26
2017-05-22T08:44:04.340Z,20.18
2017-05-22T08:44:44.827Z,20.24
2017-05-22T08:45:25.253Z,20.32
2017-05-22T08:46:05.707Z,20.34
2017-05-22T08:46:46.154Z,20.44
2017-05-22T08:47:26.610Z,20.48
2017-05-22T08:48:07.127Z,20.66
2017-05-22T08:48:47.605Z,20.73
2017-05-22T08:49:28.207Z,20.83
2017-05-22T08:51:20.836Z,21.13
2017-05-22T08:52:01.267Z,21.23
2017-05-22T08:52:41.692Z,21.23
2017-05-22T08:53:22.160Z,21.47
2017-05-22T08:54:02.546Z,21.5
2017-05-22T08:54:42.980Z,21.74
2017-05-22T08:55:23.412Z,21.94
2017-05-22T08:56:03.828Z,22.16
2017-05-22T08:56:44.268Z,22.3
2017-05-22T08:57:24.718Z,22.41
2017-05-22T08:58:05.136Z,22.51
2017-05-22T08:58:45.569Z,22.46
2017-05-22T08:59:25.978Z,22.59
2017-05-22T09:00:06.376Z,22.8
2017-05-22T09:00:46.761Z,22.99
2017-05-22T09:01:27.193Z,23.1
2017-05-22T09:02:07.621Z,23.33
2017-05-22T09:02:48.024Z,23.45
2017-05-22T09:03:28.445Z,23.67
2017-05-22T09:04:08.889Z,23.67
2017-05-22T09:04:49.292Z,23.85
2017-05-22T09:05:29.720Z,23.99
2017-05-22T09:06:10.111Z,24.24
2017-05-22T09:06:50.523Z,24.44
2017-05-22T09:07:30.957Z,24.86
2017-05-22T09:08:11.353Z,25.19
2017-05-22T09:08:51.868Z,25.58
2017-05-22T09:09:32.313Z,26.11
2017-05-22T09:10:12.745Z,27.05
2017-05-22T09:10:53.326Z,28.01
2017-05-22T09:11:33.800Z,29.09
2017-05-22T09:12:14.227Z,30.01
2017-05-22T09:12:54.655Z,30.92
2017-05-22T09:13:35.088Z,31.7
2017-05-22T09:14:15.523Z,32.45
2017-05-22T09:14:55.908Z,33.16
2017-05-22T09:15:36.343Z,33.82
2017-05-22T09:16:16.887Z,34.41
2017-05-22T09:18:14.556Z,35.5
2017-05-22T09:18:55.029Z,35.52
2017-05-22T09:19:35.480Z,35.57
2017-05-22T09:20:15.944Z,35.66
2017-05-22T09:20:56.388Z,35.82
2017-05-22T09:21:36.830Z,35.87
2017-05-22T09:22:17.311Z,36.06
2017-05-22T09:22:57.732Z,36.38
2017-05-22T09:23:38.141Z,36.76
2017-05-22T09:24:18.595Z,37.28
2017-05-22T09:24:59.021Z,37.67
2017-05-22T09:25:39.448Z,38.07
2017-05-22T09:26:19.874Z,38.54
2017-05-22T09:27:00.347Z,39.04
2017-05-22T09:27:40.788Z,39.46
2017-05-22T09:28:21.234Z,39.85
2017-05-22T09:29:01.679Z,40.08